Terminal Aerodrome Forecast
Issued by NWS

Home | Current Version | Previous Version | Text Only | Print | Product List | Glossary Off
Versions: 1 2 3 4 5 6 7 8 9 10 11 12

000
FTUS42 KMHX 180500 RRA
TAFISO
TAF
KISO 180551Z 1806/1906 00000KT P6SM SCT250
      TEMPO 1806/1809 3SM BR
     FM181400 34006KT P6SM SCT150
      AMD LTD TO CLD VIS AND WIND=

USA.gov is the U.S. government's official web portal to all federal, state and local government web resources and services.